sensor_id;sensor_type;location;lat;lon;timestamp;P1;durP1;ratioP1;P2;durP2;ratioP2
8704;SDS011;4389;41.932;25.904;2024-03-23T00:55:18;11.40;;;7.23;;
8704;SDS011;4389;41.932;25.904;2024-03-23T00:57:45;13.77;;;7.07;;
8704;SDS011;4389;41.932;25.904;2024-03-23T01:00:12;9.50;;;5.90;;
8704;SDS011;4389;41.932;25.904;2024-03-23T01:02:39;8.20;;;6.67;;
8704;SDS011;4389;41.932;25.904;2024-03-23T01:05:05;9.67;;;6.77;;
8704;SDS011;4389;41.932;25.904;2024-03-23T01:07:32;7.33;;;6.07;;
8704;SDS011;4389;41.932;25.904;2024-03-23T01:09:59;10.47;;;7.90;;
8704;SDS011;4389;41.932;25.904;2024-03-23T01:12:26;8.87;;;7.33;;
8704;SDS011;4389;41.932;25.904;2024-03-23T01:14:52;11.67;;;7.20;;
8704;SDS011;4389;41.932;25.904;2024-03-23T01:17:19;9.10;;;6.80;;
8704;SDS011;4389;41.932;25.904;2024-03-23T01:19:45;10.00;;;7.07;;
8704;SDS011;4389;41.932;25.904;2024-03-23T01:22:12;11.27;;;7.87;;
8704;SDS011;4389;41.932;25.904;2024-03-23T01:24:38;21.60;;;7.57;;
8704;SDS011;4389;41.932;25.904;2024-03-23T01:27:06;10.53;;;7.60;;
8704;SDS011;4389;41.932;25.904;2024-03-23T01:29:32;12.30;;;6.97;;
8704;SDS011;4389;41.932;25.904;2024-03-23T01:31:58;10.43;;;7.27;;
8704;SDS011;4389;41.932;25.904;2024-03-23T01:34:24;10.13;;;7.87;;
8704;SDS011;4389;41.932;25.904;2024-03-23T01:36:51;12.80;;;8.23;;
8704;SDS011;4389;41.932;25.904;2024-03-23T01:39:17;10.80;;;7.67;;
8704;SDS011;4389;41.932;25.904;2024-03-23T01:41:44;11.60;;;7.43;;
8704;SDS011;4389;41.932;25.904;2024-03-23T01:44:11;12.83;;;8.30;;
8704;SDS011;4389;41.932;25.904;2024-03-23T01:46:38;11.27;;;8.07;;
8704;SDS011;4389;41.932;25.904;2024-03-23T01:49:04;9.97;;;7.60;;
8704;SDS011;4389;41.932;25.904;2024-03-23T01:51:32;11.27;;;8.33;;
8704;SDS011;4389;41.932;25.904;2024-03-23T01:53:59;9.40;;;7.60;;
8704;SDS011;4389;41.932;25.904;2024-03-23T01:56:28;13.97;;;7.77;;
8704;SDS011;4389;41.932;25.904;2024-03-23T01:58:55;14.43;;;7.60;;
8704;SDS011;4389;41.932;25.904;2024-03-23T02:01:23;14.20;;;8.37;;
8704;SDS011;4389;41.932;25.904;2024-03-23T02:03:49;11.47;;;7.87;;
8704;SDS011;4389;41.932;25.904;2024-03-23T02:06:16;18.00;;;7.40;;
8704;SDS011;4389;41.932;25.904;2024-03-23T02:08:41;19.97;;;8.50;;
8704;SDS011;4389;41.932;25.904;2024-03-23T02:11:10;19.13;;;9.03;;
8704;SDS011;4389;41.932;25.904;2024-03-23T02:13:36;48.60;;;10.90;;
8704;SDS011;4389;41.932;25.904;2024-03-23T02:16:03;11.27;;;8.50;;
8704;SDS011;4389;41.932;25.904;2024-03-23T02:18:31;16.50;;;7.10;;
8704;SDS011;4389;41.932;25.904;2024-03-23T02:20:58;16.20;;;7.83;;
8704;SDS011;4389;41.932;25.904;2024-03-23T02:23:26;10.80;;;7.77;;
8704;SDS011;4389;41.932;25.904;2024-03-23T02:25:52;15.70;;;8.40;;
8704;SDS011;4389;41.932;25.904;2024-03-23T02:28:18;13.47;;;8.13;;
8704;SDS011;4389;41.932;25.904;2024-03-23T02:30:45;11.30;;;7.43;;
8704;SDS011;4389;41.932;25.904;2024-03-23T02:33:11;12.93;;;8.17;;
8704;SDS011;4389;41.932;25.904;2024-03-23T02:35:38;10.27;;;7.97;;
8704;SDS011;4389;41.932;25.904;2024-03-23T02:38:04;12.70;;;8.90;;
8704;SDS011;4389;41.932;25.904;2024-03-23T02:40:32;12.77;;;8.77;;
8704;SDS011;4389;41.932;25.904;2024-03-23T02:42:58;9.63;;;7.73;;
8704;SDS011;4389;41.932;25.904;2024-03-23T02:45:24;10.03;;;8.23;;
8704;SDS011;4389;41.932;25.904;2024-03-23T02:47:50;10.50;;;7.60;;
8704;SDS011;4389;41.932;25.904;2024-03-23T02:50:17;11.33;;;8.70;;
8704;SDS011;4389;41.932;25.904;2024-03-23T02:52:43;14.57;;;7.87;;
8704;SDS011;4389;41.932;25.904;2024-03-23T02:55:10;13.33;;;8.40;;
8704;SDS011;4389;41.932;25.904;2024-03-23T02:57:37;17.20;;;8.23;;
8704;SDS011;4389;41.932;25.904;2024-03-23T03:00:05;10.13;;;7.63;;
8704;SDS011;4389;41.932;25.904;2024-03-23T03:02:32;10.83;;;8.43;;
8704;SDS011;4389;41.932;25.904;2024-03-23T03:04:59;10.80;;;7.77;;
8704;SDS011;4389;41.932;25.904;2024-03-23T03:07:25;9.47;;;7.07;;
8704;SDS011;4389;41.932;25.904;2024-03-23T03:09:52;11.80;;;7.67;;
8704;SDS011;4389;41.932;25.904;2024-03-23T03:12:18;10.93;;;8.13;;
8704;SDS011;4389;41.932;25.904;2024-03-23T03:14:46;14.40;;;8.00;;
8704;SDS011;4389;41.932;25.904;2024-03-23T03:17:13;11.00;;;7.80;;
8704;SDS011;4389;41.932;25.904;2024-03-23T03:19:40;16.93;;;7.80;;
8704;SDS011;4389;41.932;25.904;2024-03-23T03:22:05;13.70;;;8.60;;
8704;SDS011;4389;41.932;25.904;2024-03-23T03:24:32;11.00;;;7.67;;
8704;SDS011;4389;41.932;25.904;2024-03-23T03:26:58;13.47;;;8.80;;
8704;SDS011;4389;41.932;25.904;2024-03-23T03:29:25;11.90;;;8.23;;
8704;SDS011;4389;41.932;25.904;2024-03-23T03:31:52;14.57;;;8.40;;
8704;SDS011;4389;41.932;25.904;2024-03-23T03:34:19;13.53;;;8.50;;
8704;SDS011;4389;41.932;25.904;2024-03-23T03:36:45;12.87;;;8.03;;
8704;SDS011;4389;41.932;25.904;2024-03-23T03:39:11;12.10;;;8.40;;
8704;SDS011;4389;41.932;25.904;2024-03-23T03:41:37;17.43;;;9.17;;
8704;SDS011;4389;41.932;25.904;2024-03-23T03:44:04;18.60;;;8.63;;
8704;SDS011;4389;41.932;25.904;2024-03-23T03:46:30;11.43;;;8.40;;
8704;SDS011;4389;41.932;25.904;2024-03-23T03:48:58;12.30;;;8.63;;
8704;SDS011;4389;41.932;25.904;2024-03-23T03:51:24;11.83;;;8.73;;
8704;SDS011;4389;41.932;25.904;2024-03-23T03:53:51;11.97;;;8.67;;
8704;SDS011;4389;41.932;25.904;2024-03-23T03:56:17;11.90;;;9.23;;
8704;SDS011;4389;41.932;25.904;2024-03-23T03:58:44;12.60;;;9.10;;
8704;SDS011;4389;41.932;25.904;2024-03-23T04:01:10;16.33;;;9.43;;
8704;SDS011;4389;41.932;25.904;2024-03-23T04:03:37;18.80;;;9.17;;
8704;SDS011;4389;41.932;25.904;2024-03-23T04:06:06;11.33;;;8.77;;
8704;SDS011;4389;41.932;25.904;2024-03-23T04:08:33;22.73;;;9.97;;
8704;SDS011;4389;41.932;25.904;2024-03-23T04:10:59;18.57;;;10.00;;
8704;SDS011;4389;41.932;25.904;2024-03-23T04:13:25;12.97;;;8.83;;
8704;SDS011;4389;41.932;25.904;2024-03-23T04:15:53;17.17;;;9.37;;
8704;SDS011;4389;41.932;25.904;2024-03-23T04:18:19;14.43;;;9.63;;
8704;SDS011;4389;41.932;25.904;2024-03-23T04:20:46;11.93;;;8.33;;
8704;SDS011;4389;41.932;25.904;2024-03-23T04:23:14;12.23;;;9.00;;
8704;SDS011;4389;41.932;25.904;2024-03-23T04:25:41;13.70;;;9.23;;
8704;SDS011;4389;41.932;25.904;2024-03-23T04:28:06;12.03;;;9.17;;
8704;SDS011;4389;41.932;25.904;2024-03-23T04:30:33;12.07;;;9.23;;
8704;SDS011;4389;41.932;25.904;2024-03-23T04:32:59;18.53;;;10.20;;
8704;SDS011;4389;41.932;25.904;2024-03-23T04:35:26;14.13;;;9.03;;
8704;SDS011;4389;41.932;25.904;2024-03-23T04:37:52;28.93;;;10.03;;
8704;SDS011;4389;41.932;25.904;2024-03-23T04:40:22;27.57;;;10.00;;
8704;SDS011;4389;41.932;25.904;2024-03-23T04:42:48;14.70;;;9.50;;
8704;SDS011;4389;41.932;25.904;2024-03-23T04:45:14;19.37;;;9.43;;
8704;SDS011;4389;41.932;25.904;2024-03-23T04:47:41;10.77;;;8.23;;
8704;SDS011;4389;41.932;25.904;2024-03-23T04:50:08;15.43;;;8.57;;
8704;SDS011;4389;41.932;25.904;2024-03-23T04:52:36;10.90;;;8.47;;
8704;SDS011;4389;41.932;25.904;2024-03-23T04:55:03;10.67;;;9.57;;
8704;SDS011;4389;41.932;25.904;2024-03-23T04:57:32;13.30;;;10.17;;
8704;SDS011;4389;41.932;25.904;2024-03-23T04:59:58;16.93;;;12.70;;
8704;SDS011;4389;41.932;25.904;2024-03-23T05:02:25;13.50;;;11.27;;
8704;SDS011;4389;41.932;25.904;2024-03-23T05:04:52;17.43;;;12.07;;
8704;SDS011;4389;41.932;25.904;2024-03-23T05:07:18;22.50;;;11.90;;
8704;SDS011;4389;41.932;25.904;2024-03-23T05:09:46;13.30;;;10.03;;
8704;SDS011;4389;41.932;25.904;2024-03-23T05:12:12;14.43;;;11.17;;
8704;SDS011;4389;41.932;25.904;2024-03-23T05:14:40;22.33;;;13.23;;
8704;SDS011;4389;41.932;25.904;2024-03-23T05:17:06;14.58;;;11.80;;
8704;SDS011;4389;41.932;25.904;2024-03-23T05:19:32;16.40;;;12.07;;
8704;SDS011;4389;41.932;25.904;2024-03-23T05:21:58;17.83;;;13.43;;
8704;SDS011;4389;41.932;25.904;2024-03-23T05:24:26;18.67;;;14.63;;
8704;SDS011;4389;41.932;25.904;2024-03-23T05:26:51;24.70;;;16.40;;
8704;SDS011;4389;41.932;25.904;2024-03-23T05:29:18;22.67;;;15.47;;
8704;SDS011;4389;41.932;25.904;2024-03-23T05:31:48;28.87;;;22.23;;
8704;SDS011;4389;41.932;25.904;2024-03-23T05:34:17;55.83;;;42.70;;
8704;SDS011;4389;41.932;25.904;2024-03-23T05:36:42;67.77;;;49.77;;
8704;SDS011;4389;41.932;25.904;2024-03-23T05:39:09;59.77;;;46.13;;
8704;SDS011;4389;41.932;25.904;2024-03-23T05:41:35;74.33;;;53.40;;
8704;SDS011;4389;41.932;25.904;2024-03-23T05:44:02;78.43;;;54.30;;
8704;SDS011;4389;41.932;25.904;2024-03-23T05:46:28;77.10;;;54.70;;
8704;SDS011;4389;41.932;25.904;2024-03-23T05:48:56;80.13;;;58.07;;
8704;SDS011;4389;41.932;25.904;2024-03-23T05:51:27;81.63;;;55.43;;
8704;SDS011;4389;41.932;25.904;2024-03-23T05:53:54;102.27;;;66.83;;
8704;SDS011;4389;41.932;25.904;2024-03-23T05:56:20;90.67;;;63.30;;
8704;SDS011;4389;41.932;25.904;2024-03-23T05:58:47;79.17;;;56.07;;
8704;SDS011;4389;41.932;25.904;2024-03-23T06:01:13;61.10;;;42.30;;
8704;SDS011;4389;41.932;25.904;2024-03-23T06:03:40;44.57;;;34.67;;
8704;SDS011;4389;41.932;25.904;2024-03-23T06:06:07;50.13;;;38.07;;
8704;SDS011;4389;41.932;25.904;2024-03-23T06:08:37;54.87;;;36.00;;
8704;SDS011;4389;41.932;25.904;2024-03-23T06:11:03;40.17;;;31.70;;
8704;SDS011;4389;41.932;25.904;2024-03-23T06:13:31;46.53;;;31.50;;
8704;SDS011;4389;41.932;25.904;2024-03-23T06:15:57;41.37;;;31.27;;
8704;SDS011;4389;41.932;25.904;2024-03-23T06:18:24;40.87;;;30.77;;
8704;SDS011;4389;41.932;25.904;2024-03-23T06:20:50;37.80;;;30.50;;
8704;SDS011;4389;41.932;25.904;2024-03-23T06:23:18;44.27;;;34.47;;
8704;SDS011;4389;41.932;25.904;2024-03-23T06:25:45;40.27;;;34.70;;
8704;SDS011;4389;41.932;25.904;2024-03-23T06:28:12;47.00;;;32.50;;
8704;SDS011;4389;41.932;25.904;2024-03-23T06:30:38;49.67;;;30.30;;
8704;SDS011;4389;41.932;25.904;2024-03-23T06:33:05;35.53;;;27.73;;
8704;SDS011;4389;41.932;25.904;2024-03-23T06:35:31;38.80;;;24.70;;
8704;SDS011;4389;41.932;25.904;2024-03-23T06:37:58;27.93;;;23.27;;
8704;SDS011;4389;41.932;25.904;2024-03-23T06:40:25;40.77;;;30.20;;
8704;SDS011;4389;41.932;25.904;2024-03-23T06:42:52;20.00;;;15.53;;
8704;SDS011;4389;41.932;25.904;2024-03-23T06:45:18;21.23;;;14.43;;
8704;SDS011;4389;41.932;25.904;2024-03-23T06:47:48;21.57;;;18.07;;
8704;SDS011;4389;41.932;25.904;2024-03-23T06:50:14;22.80;;;17.53;;
8704;SDS011;4389;41.932;25.904;2024-03-23T06:52:41;21.83;;;16.27;;
8704;SDS011;4389;41.932;25.904;2024-03-23T06:55:07;26.13;;;16.13;;
8704;SDS011;4389;41.932;25.904;2024-03-23T06:57:36;22.17;;;16.27;;
8704;SDS011;4389;41.932;25.904;2024-03-23T07:00:02;20.67;;;15.17;;
8704;SDS011;4389;41.932;25.904;2024-03-23T07:02:30;21.33;;;15.13;;
8704;SDS011;4389;41.932;25.904;2024-03-23T07:04:55;18.90;;;13.63;;
8704;SDS011;4389;41.932;25.904;2024-03-23T07:07:22;19.90;;;14.47;;
8704;SDS011;4389;41.932;25.904;2024-03-23T07:09:48;25.30;;;16.13;;
8704;SDS011;4389;41.932;25.904;2024-03-23T07:12:15;25.47;;;17.17;;
8704;SDS011;4389;41.932;25.904;2024-03-23T07:14:42;16.57;;;13.27;;
8704;SDS011;4389;41.932;25.904;2024-03-23T07:17:09;31.67;;;16.67;;
8704;SDS011;4389;41.932;25.904;2024-03-23T07:19:36;19.90;;;14.63;;
8704;SDS011;4389;41.932;25.904;2024-03-23T07:22:03;18.67;;;14.13;;
8704;SDS011;4389;41.932;25.904;2024-03-23T07:24:29;19.17;;;14.93;;
8704;SDS011;4389;41.932;25.904;2024-03-23T07:26:57;24.37;;;14.90;;
8704;SDS011;4389;41.932;25.904;2024-03-23T07:29:23;21.27;;;14.80;;
8704;SDS011;4389;41.932;25.904;2024-03-23T07:31:52;23.53;;;14.23;;
8704;SDS011;4389;41.932;25.904;2024-03-23T07:34:17;17.77;;;13.50;;
8704;SDS011;4389;41.932;25.904;2024-03-23T07:36:45;19.67;;;14.97;;
8704;SDS011;4389;41.932;25.904;2024-03-23T07:39:11;22.07;;;13.93;;
8704;SDS011;4389;41.932;25.904;2024-03-23T07:41:38;17.53;;;13.13;;
8704;SDS011;4389;41.932;25.904;2024-03-23T07:44:04;14.33;;;11.60;;
8704;SDS011;4389;41.932;25.904;2024-03-23T07:46:31;41.13;;;14.60;;
8704;SDS011;4389;41.932;25.904;2024-03-23T07:48:59;29.70;;;15.00;;
8704;SDS011;4389;41.932;25.904;2024-03-23T07:51:25;15.60;;;11.43;;
8704;SDS011;4389;41.932;25.904;2024-03-23T07:53:51;16.20;;;12.47;;
8704;SDS011;4389;41.932;25.904;2024-03-23T07:56:18;16.73;;;12.17;;
8704;SDS011;4389;41.932;25.904;2024-03-23T07:58:45;20.10;;;12.43;;
8704;SDS011;4389;41.932;25.904;2024-03-23T08:01:12;14.43;;;10.93;;
8704;SDS011;4389;41.932;25.904;2024-03-23T08:03:40;15.60;;;10.27;;
8704;SDS011;4389;41.932;25.904;2024-03-23T08:06:09;19.40;;;11.40;;
8704;SDS011;4389;41.932;25.904;2024-03-23T08:08:37;14.00;;;11.37;;
8704;SDS011;4389;41.932;25.904;2024-03-23T08:11:05;15.77;;;11.07;;
8704;SDS011;4389;41.932;25.904;2024-03-23T08:13:31;12.53;;;10.03;;
8704;SDS011;4389;41.932;25.904;2024-03-23T08:15:58;15.17;;;10.47;;
8704;SDS011;4389;41.932;25.904;2024-03-23T08:18:25;18.83;;;10.17;;
8704;SDS011;4389;41.932;25.904;2024-03-23T08:20:57;20.53;;;10.07;;
8704;SDS011;4389;41.932;25.904;2024-03-23T08:23:26;17.17;;;10.57;;
8704;SDS011;4389;41.932;25.904;2024-03-23T08:25:57;14.17;;;10.30;;
8704;SDS011;4389;41.932;25.904;2024-03-23T08:28:24;13.17;;;10.97;;
8704;SDS011;4389;41.932;25.904;2024-03-23T08:30:50;18.40;;;9.50;;
8704;SDS011;4389;41.932;25.904;2024-03-23T08:33:17;12.20;;;9.13;;
8704;SDS011;4389;41.932;25.904;2024-03-23T08:35:43;21.77;;;13.23;;
8704;SDS011;4389;41.932;25.904;2024-03-23T08:38:19;11.83;;;9.47;;
8704;SDS011;4389;41.932;25.904;2024-03-23T08:40:47;11.77;;;9.87;;
8704;SDS011;4389;41.932;25.904;2024-03-23T08:43:13;16.97;;;9.77;;
8704;SDS011;4389;41.932;25.904;2024-03-23T08:45:39;11.80;;;9.60;;
8704;SDS011;4389;41.932;25.904;2024-03-23T08:48:06;13.00;;;10.07;;
8704;SDS011;4389;41.932;25.904;2024-03-23T08:50:34;16.77;;;9.43;;
8704;SDS011;4389;41.932;25.904;2024-03-23T08:53:01;14.77;;;9.07;;
8704;SDS011;4389;41.932;25.904;2024-03-23T08:55:27;13.33;;;8.83;;
8704;SDS011;4389;41.932;25.904;2024-03-23T08:57:55;10.43;;;9.17;;
8704;SDS011;4389;41.932;25.904;2024-03-23T09:00:21;16.37;;;9.80;;
8704;SDS011;4389;41.932;25.904;2024-03-23T09:02:48;15.00;;;8.80;;
8704;SDS011;4389;41.932;25.904;2024-03-23T09:05:14;11.37;;;9.17;;
8704;SDS011;4389;41.932;25.904;2024-03-23T09:07:41;13.33;;;9.50;;
8704;SDS011;4389;41.932;25.904;2024-03-23T09:10:07;9.87;;;8.80;;
8704;SDS011;4389;41.932;25.904;2024-03-23T09:12:34;14.37;;;10.53;;
8704;SDS011;4389;41.932;25.904;2024-03-23T09:15:01;11.03;;;7.63;;
8704;SDS011;4389;41.932;25.904;2024-03-23T09:17:28;9.70;;;7.63;;
8704;SDS011;4389;41.932;25.904;2024-03-23T09:19:54;16.27;;;9.00;;
8704;SDS011;4389;41.932;25.904;2024-03-23T09:22:21;12.03;;;8.47;;
8704;SDS011;4389;41.932;25.904;2024-03-23T09:24:47;8.47;;;6.37;;
8704;SDS011;4389;41.932;25.904;2024-03-23T09:27:14;9.13;;;7.20;;
8704;SDS011;4389;41.932;25.904;2024-03-23T09:29:39;10.53;;;7.30;;
8704;SDS011;4389;41.932;25.904;2024-03-23T09:32:07;8.73;;;7.53;;
8704;SDS011;4389;41.932;25.904;2024-03-23T09:34:34;7.90;;;5.93;;
8704;SDS011;4389;41.932;25.904;2024-03-23T09:37:00;14.03;;;6.53;;
8704;SDS011;4389;41.932;25.904;2024-03-23T09:39:26;11.27;;;7.10;;
8704;SDS011;4389;41.932;25.904;2024-03-23T09:41:56;12.43;;;7.30;;
8704;SDS011;4389;41.932;25.904;2024-03-23T09:44:22;12.80;;;7.87;;
8704;SDS011;4389;41.932;25.904;2024-03-23T09:46:51;8.63;;;7.30;;
8704;SDS011;4389;41.932;25.904;2024-03-23T09:49:18;10.87;;;7.03;;
8704;SDS011;4389;41.932;25.904;2024-03-23T09:51:45;7.33;;;5.40;;
8704;SDS011;4389;41.932;25.904;2024-03-23T09:54:12;7.80;;;5.07;;
8704;SDS011;4389;41.932;25.904;2024-03-23T09:56:39;6.83;;;5.57;;
8704;SDS011;4389;41.932;25.904;2024-03-23T09:59:05;6.20;;;5.27;;
8704;SDS011;4389;41.932;25.904;2024-03-23T10:01:32;12.40;;;6.80;;
8704;SDS011;4389;41.932;25.904;2024-03-23T10:03:59;10.27;;;6.30;;
8704;SDS011;4389;41.932;25.904;2024-03-23T10:06:27;8.70;;;7.13;;
8704;SDS011;4389;41.932;25.904;2024-03-23T10:08:52;8.87;;;6.10;;
8704;SDS011;4389;41.932;25.904;2024-03-23T10:11:20;8.57;;;5.90;;
8704;SDS011;4389;41.932;25.904;2024-03-23T10:13:47;9.23;;;6.03;;
8704;SDS011;4389;41.932;25.904;2024-03-23T10:16:20;17.40;;;7.30;;
8704;SDS011;4389;41.932;25.904;2024-03-23T10:18:47;9.00;;;6.03;;
8704;SDS011;4389;41.932;25.904;2024-03-23T10:21:14;8.27;;;6.00;;
8704;SDS011;4389;41.932;25.904;2024-03-23T10:23:42;8.23;;;5.73;;
8704;SDS011;4389;41.932;25.904;2024-03-23T10:26:16;11.13;;;6.00;;
8704;SDS011;4389;41.932;25.904;2024-03-23T10:28:53;7.40;;;5.97;;
8704;SDS011;4389;41.932;25.904;2024-03-23T10:31:22;13.43;;;6.10;;
8704;SDS011;4389;41.932;25.904;2024-03-23T10:33:48;11.30;;;5.70;;
8704;SDS011;4389;41.932;25.904;2024-03-23T10:36:15;13.23;;;6.00;;
8704;SDS011;4389;41.932;25.904;2024-03-23T10:38:44;6.20;;;5.57;;
8704;SDS011;4389;41.932;25.904;2024-03-23T10:41:11;7.20;;;5.77;;
8704;SDS011;4389;41.932;25.904;2024-03-23T10:43:37;9.07;;;5.93;;
8704;SDS011;4389;41.932;25.904;2024-03-23T10:46:05;10.00;;;5.60;;
8704;SDS011;4389;41.932;25.904;2024-03-23T10:48:31;10.07;;;6.00;;
8704;SDS011;4389;41.932;25.904;2024-03-23T10:50:58;11.03;;;6.53;;
8704;SDS011;4389;41.932;25.904;2024-03-23T10:53:25;6.93;;;5.83;;
8704;SDS011;4389;41.932;25.904;2024-03-23T10:55:54;7.70;;;6.83;;
8704;SDS011;4389;41.932;25.904;2024-03-23T10:58:22;10.00;;;6.03;;
8704;SDS011;4389;41.932;25.904;2024-03-23T11:00:51;6.23;;;5.50;;
8704;SDS011;4389;41.932;25.904;2024-03-23T11:03:32;5.57;;;4.60;;
8704;SDS011;4389;41.932;25.904;2024-03-23T11:06:00;7.83;;;5.20;;
8704;SDS011;4389;41.932;25.904;2024-03-23T11:08:31;23.17;;;9.27;;
8704;SDS011;4389;41.932;25.904;2024-03-23T11:13:47;5.50;;;4.83;;
8704;SDS011;4389;41.932;25.904;2024-03-23T11:16:14;8.03;;;3.93;;
8704;SDS011;4389;41.932;25.904;2024-03-23T11:18:42;6.23;;;5.57;;
8704;SDS011;4389;41.932;25.904;2024-03-23T11:21:09;4.93;;;4.37;;
8704;SDS011;4389;41.932;25.904;2024-03-23T11:23:36;8.20;;;4.67;;
8704;SDS011;4389;41.932;25.904;2024-03-23T11:26:02;5.97;;;4.50;;
8704;SDS011;4389;41.932;25.904;2024-03-23T11:28:30;6.73;;;4.20;;
8704;SDS011;4389;41.932;25.904;2024-03-23T11:30:56;7.70;;;3.20;;
8704;SDS011;4389;41.932;25.904;2024-03-23T11:33:23;10.60;;;2.63;;
8704;SDS011;4389;41.932;25.904;2024-03-23T11:35:48;3.40;;;2.60;;
8704;SDS011;4389;41.932;25.904;2024-03-23T11:38:17;3.07;;;2.60;;
8704;SDS011;4389;41.932;25.904;2024-03-23T11:40:44;8.73;;;3.87;;
8704;SDS011;4389;41.932;25.904;2024-03-23T11:43:13;8.57;;;3.57;;
8704;SDS011;4389;41.932;25.904;2024-03-23T11:45:42;8.93;;;3.77;;
8704;SDS011;4389;41.932;25.904;2024-03-23T11:48:10;7.30;;;4.40;;
8704;SDS011;4389;41.932;25.904;2024-03-23T11:50:37;10.50;;;7.50;;
8704;SDS011;4389;41.932;25.904;2024-03-23T11:55:53;9.67;;;3.50;;
8704;SDS011;4389;41.932;25.904;2024-03-23T11:58:22;3.23;;;2.30;;
8704;SDS011;4389;41.932;25.904;2024-03-23T12:00:52;3.40;;;2.77;;
8704;SDS011;4389;41.932;25.904;2024-03-23T12:03:23;4.77;;;2.00;;
8704;SDS011;4389;41.932;25.904;2024-03-23T12:05:51;7.20;;;4.03;;
8704;SDS011;4389;41.932;25.904;2024-03-23T12:08:20;10.97;;;5.30;;
8704;SDS011;4389;41.932;25.904;2024-03-23T12:10:48;15.20;;;10.67;;
8704;SDS011;4389;41.932;25.904;2024-03-23T12:13:17;3.17;;;2.00;;
8704;SDS011;4389;41.932;25.904;2024-03-23T12:15:47;7.93;;;4.57;;
8704;SDS011;4389;41.932;25.904;2024-03-23T12:18:17;15.97;;;3.63;;
8704;SDS011;4389;41.932;25.904;2024-03-23T12:20:43;10.23;;;3.23;;
8704;SDS011;4389;41.932;25.904;2024-03-23T12:23:10;5.30;;;2.80;;
8704;SDS011;4389;41.932;25.904;2024-03-23T12:25:37;5.30;;;3.03;;
8704;SDS011;4389;41.932;25.904;2024-03-23T12:28:04;4.93;;;2.43;;
8704;SDS011;4389;41.932;25.904;2024-03-23T12:30:32;4.77;;;2.73;;
8704;SDS011;4389;41.932;25.904;2024-03-23T12:32:59;13.07;;;4.03;;
8704;SDS011;4389;41.932;25.904;2024-03-23T12:35:29;4.50;;;2.77;;
8704;SDS011;4389;41.932;25.904;2024-03-23T12:37:55;6.73;;;4.37;;
8704;SDS011;4389;41.932;25.904;2024-03-23T12:40:22;9.77;;;4.00;;
8704;SDS011;4389;41.932;25.904;2024-03-23T12:42:48;7.10;;;3.17;;
8704;SDS011;4389;41.932;25.904;2024-03-23T12:45:14;3.00;;;2.20;;
8704;SDS011;4389;41.932;25.904;2024-03-23T12:47:41;6.67;;;2.40;;
8704;SDS011;4389;41.932;25.904;2024-03-23T12:50:07;4.60;;;2.33;;
8704;SDS011;4389;41.932;25.904;2024-03-23T12:52:36;3.23;;;2.23;;
8704;SDS011;4389;41.932;25.904;2024-03-23T12:55:02;12.07;;;3.93;;
8704;SDS011;4389;41.932;25.904;2024-03-23T12:57:31;3.87;;;2.70;;
8704;SDS011;4389;41.932;25.904;2024-03-23T12:59:57;2.53;;;2.27;;
8704;SDS011;4389;41.932;25.904;2024-03-23T13:02:24;3.67;;;2.50;;
8704;SDS011;4389;41.932;25.904;2024-03-23T13:04:50;2.63;;;2.40;;
8704;SDS011;4389;41.932;25.904;2024-03-23T13:07:19;4.83;;;2.87;;
8704;SDS011;4389;41.932;25.904;2024-03-23T13:09:47;9.80;;;4.07;;
8704;SDS011;4389;41.932;25.904;2024-03-23T13:12:16;7.40;;;3.23;;
8704;SDS011;4389;41.932;25.904;2024-03-23T13:14:43;4.73;;;3.10;;
8704;SDS011;4389;41.932;25.904;2024-03-23T13:17:10;4.73;;;3.07;;
8704;SDS011;4389;41.932;25.904;2024-03-23T13:19:36;32.10;;;5.60;;
8704;SDS011;4389;41.932;25.904;2024-03-23T13:22:03;7.90;;;4.23;;
8704;SDS011;4389;41.932;25.904;2024-03-23T13:24:30;8.40;;;3.80;;
8704;SDS011;4389;41.932;25.904;2024-03-23T13:26:59;4.47;;;3.27;;
8704;SDS011;4389;41.932;25.904;2024-03-23T13:29:24;3.50;;;3.20;;
8704;SDS011;4389;41.932;25.904;2024-03-23T13:31:51;7.73;;;3.27;;
8704;SDS011;4389;41.932;25.904;2024-03-23T13:34:18;6.13;;;2.93;;
8704;SDS011;4389;41.932;25.904;2024-03-23T13:36:45;7.60;;;2.63;;
8704;SDS011;4389;41.932;25.904;2024-03-23T13:39:12;7.25;;;3.13;;
8704;SDS011;4389;41.932;25.904;2024-03-23T13:41:39;2.90;;;2.30;;
8704;SDS011;4389;41.932;25.904;2024-03-23T13:44:07;3.57;;;3.20;;
8704;SDS011;4389;41.932;25.904;2024-03-23T13:46:35;4.70;;;3.40;;
8704;SDS011;4389;41.932;25.904;2024-03-23T13:49:02;3.47;;;2.60;;
8704;SDS011;4389;41.932;25.904;2024-03-23T13:51:28;3.40;;;2.67;;
8704;SDS011;4389;41.932;25.904;2024-03-23T13:53:54;4.90;;;2.80;;
8704;SDS011;4389;41.932;25.904;2024-03-23T13:56:22;5.93;;;2.70;;
8704;SDS011;4389;41.932;25.904;2024-03-23T13:58:48;4.63;;;3.00;;
8704;SDS011;4389;41.932;25.904;2024-03-23T14:01:16;3.90;;;2.47;;
8704;SDS011;4389;41.932;25.904;2024-03-23T14:03:43;4.40;;;2.60;;
8704;SDS011;4389;41.932;25.904;2024-03-23T14:06:10;4.10;;;2.63;;
8704;SDS011;4389;41.932;25.904;2024-03-23T14:08:36;4.83;;;3.43;;
8704;SDS011;4389;41.932;25.904;2024-03-23T14:11:04;3.43;;;2.77;;
8704;SDS011;4389;41.932;25.904;2024-03-23T14:13:30;3.43;;;2.80;;
8704;SDS011;4389;41.932;25.904;2024-03-23T14:15:57;5.40;;;3.03;;
8704;SDS011;4389;41.932;25.904;2024-03-23T14:18:25;3.77;;;3.17;;
8704;SDS011;4389;41.932;25.904;2024-03-23T14:20:55;4.63;;;3.00;;
8704;SDS011;4389;41.932;25.904;2024-03-23T14:23:23;4.27;;;3.03;;
8704;SDS011;4389;41.932;25.904;2024-03-23T14:25:52;3.70;;;2.77;;
8704;SDS011;4389;41.932;25.904;2024-03-23T14:28:18;6.60;;;3.00;;
8704;SDS011;4389;41.932;25.904;2024-03-23T14:30:45;4.27;;;3.23;;
8704;SDS011;4389;41.932;25.904;2024-03-23T14:33:10;6.07;;;3.80;;
8704;SDS011;4389;41.932;25.904;2024-03-23T14:35:39;5.00;;;3.60;;
8704;SDS011;4389;41.932;25.904;2024-03-23T14:38:05;4.00;;;2.97;;
8704;SDS011;4389;41.932;25.904;2024-03-23T14:40:32;3.33;;;2.67;;
8704;SDS011;4389;41.932;25.904;2024-03-23T14:42:57;4.93;;;2.90;;
8704;SDS011;4389;41.932;25.904;2024-03-23T14:45:24;5.70;;;3.10;;
8704;SDS011;4389;41.932;25.904;2024-03-23T14:47:50;6.43;;;3.10;;
8704;SDS011;4389;41.932;25.904;2024-03-23T14:50:17;4.43;;;2.90;;
8704;SDS011;4389;41.932;25.904;2024-03-23T14:52:45;5.03;;;3.37;;
8704;SDS011;4389;41.932;25.904;2024-03-23T14:55:12;7.07;;;2.87;;
8704;SDS011;4389;41.932;25.904;2024-03-23T14:57:38;3.60;;;3.00;;
8704;SDS011;4389;41.932;25.904;2024-03-23T15:00:06;3.80;;;3.20;;
8704;SDS011;4389;41.932;25.904;2024-03-23T15:02:33;5.60;;;2.97;;
8704;SDS011;4389;41.932;25.904;2024-03-23T15:05:00;6.07;;;2.77;;
8704;SDS011;4389;41.932;25.904;2024-03-23T15:07:26;5.20;;;3.47;;
8704;SDS011;4389;41.932;25.904;2024-03-23T15:09:54;5.07;;;3.03;;
8704;SDS011;4389;41.932;25.904;2024-03-23T15:12:20;2.67;;;2.40;;
8704;SDS011;4389;41.932;25.904;2024-03-23T15:14:47;5.87;;;3.67;;
8704;SDS011;4389;41.932;25.904;2024-03-23T15:17:13;3.90;;;2.90;;
8704;SDS011;4389;41.932;25.904;2024-03-23T15:19:40;4.67;;;3.40;;
8704;SDS011;4389;41.932;25.904;2024-03-23T15:22:07;9.97;;;2.97;;
8704;SDS011;4389;41.932;25.904;2024-03-23T15:24:35;3.67;;;2.73;;
8704;SDS011;4389;41.932;25.904;2024-03-23T15:27:03;5.90;;;3.90;;
8704;SDS011;4389;41.932;25.904;2024-03-23T15:29:29;3.30;;;2.87;;
8704;SDS011;4389;41.932;25.904;2024-03-23T15:31:56;7.37;;;3.70;;
8704;SDS011;4389;41.932;25.904;2024-03-23T15:34:23;6.23;;;3.20;;
8704;SDS011;4389;41.932;25.904;2024-03-23T15:36:49;6.43;;;3.30;;
8704;SDS011;4389;41.932;25.904;2024-03-23T15:39:16;4.20;;;3.00;;
8704;SDS011;4389;41.932;25.904;2024-03-23T15:41:43;6.57;;;3.20;;
8704;SDS011;4389;41.932;25.904;2024-03-23T15:44:12;4.50;;;3.23;;
8704;SDS011;4389;41.932;25.904;2024-03-23T15:46:38;4.10;;;3.13;;
8704;SDS011;4389;41.932;25.904;2024-03-23T15:49:05;4.90;;;3.50;;